createdAt,value
2019-04-01T00:00:44.176Z,10.03
2019-04-01T00:03:16.677Z,11.50
2019-04-01T00:05:49.186Z,10.27
2019-04-01T00:08:21.521Z,10.33
2019-04-01T00:10:54.199Z,9.83
2019-04-01T00:13:26.576Z,8.33
2019-04-01T00:15:58.831Z,10.37
2019-04-01T00:18:31.291Z,10.17
2019-04-01T00:21:03.662Z,10.40
2019-04-01T00:23:36.246Z,10.33
2019-04-01T00:26:08.617Z,10.27
2019-04-01T00:28:41.002Z,9.57
2019-04-01T00:31:13.465Z,10.90
2019-04-01T00:33:45.871Z,11.70
2019-04-01T00:36:18.173Z,11.17
2019-04-01T00:38:50.596Z,11.00
2019-04-01T00:41:49.476Z,12.97
2019-04-01T00:44:21.942Z,16.03
2019-04-01T00:46:54.366Z,28.77
2019-04-01T00:49:26.966Z,21.17
2019-04-01T00:51:59.526Z,23.73
2019-04-01T00:54:31.813Z,19.93
2019-04-01T00:57:04.116Z,17.43
2019-04-01T00:59:36.312Z,13.03
2019-04-01T01:02:08.751Z,14.60
2019-04-01T01:04:42.237Z,10.33
2019-04-01T01:07:14.581Z,10.83
2019-04-01T01:09:48.001Z,10.07
2019-04-01T01:12:20.807Z,12.30
2019-04-01T01:14:54.491Z,14.03
2019-04-01T01:17:27.844Z,12.80
2019-04-01T01:20:00.517Z,11.47
2019-04-01T01:22:33.046Z,12.03
2019-04-01T01:25:05.608Z,10.43
2019-04-01T01:27:39.146Z,12.50
2019-04-01T01:30:12.386Z,10.77
2019-04-01T01:32:44.751Z,11.63
2019-04-01T01:35:17.199Z,10.43
2019-04-01T01:37:49.536Z,11.63
2019-04-01T01:40:21.921Z,10.67
2019-04-01T01:42:54.221Z,11.97
2019-04-01T01:45:26.711Z,10.83
2019-04-01T01:47:59.247Z,10.13
2019-04-01T01:50:31.983Z,8.53
2019-04-01T01:53:04.561Z,9.13
2019-04-01T01:55:36.656Z,7.97
2019-04-01T01:58:09.131Z,7.43
2019-04-01T02:00:42.112Z,7.43
2019-04-01T02:03:16.034Z,7.23
2019-04-01T02:05:48.301Z,7.77
2019-04-01T02:08:21.057Z,7.67
2019-04-01T02:10:53.406Z,6.83
2019-04-01T02:13:26.418Z,7.03
2019-04-01T02:15:58.736Z,7.70
2019-04-01T02:18:31.181Z,6.63
2019-04-01T02:21:03.582Z,6.73
2019-04-01T02:23:35.892Z,6.27
2019-04-01T02:26:08.276Z,6.47
2019-04-01T02:28:40.766Z,6.07
2019-04-01T02:31:13.322Z,6.67
2019-04-01T02:33:45.883Z,6.50
2019-04-01T02:36:18.278Z,6.00
2019-04-01T02:38:50.947Z,7.47
2019-04-01T02:41:23.732Z,7.93
2019-04-01T02:43:56.103Z,7.23
2019-04-01T02:46:28.583Z,6.43
2019-04-01T02:49:01.166Z,7.00
2019-04-01T02:51:33.948Z,6.70
2019-04-01T02:54:06.207Z,5.93
2019-04-01T02:56:38.543Z,6.33
2019-04-01T02:59:10.779Z,6.63
2019-04-01T03:01:43.338Z,7.13
2019-04-01T03:04:15.893Z,6.17
2019-04-01T03:06:48.298Z,17.57
2019-04-01T03:09:21.022Z,36.47
2019-04-01T03:11:53.282Z,29.23
2019-04-01T03:14:25.780Z,21.23
2019-04-01T03:16:58.272Z,18.67
2019-04-01T03:19:30.851Z,19.13
2019-04-01T03:22:03.191Z,16.73
2019-04-01T03:24:35.593Z,16.87
2019-04-01T03:27:09.151Z,16.33
2019-04-01T03:29:41.509Z,17.73
2019-04-01T03:32:14.157Z,20.30
2019-04-01T03:34:46.613Z,22.13
2019-04-01T03:37:19.247Z,34.77
2019-04-01T03:39:51.651Z,27.00
2019-04-01T03:42:24.357Z,25.17
2019-04-01T03:44:57.069Z,26.97
2019-04-01T03:47:29.711Z,22.70
2019-04-01T03:50:02.076Z,19.47
2019-04-01T03:52:34.477Z,17.53
2019-04-01T03:55:07.426Z,20.53
2019-04-01T03:57:39.596Z,20.37
2019-04-01T04:00:13.157Z,21.17
2019-04-01T04:02:45.648Z,17.90
2019-04-01T04:05:18.039Z,16.30
2019-04-01T04:07:50.887Z,15.30
2019-04-01T04:10:23.541Z,15.37
2019-04-01T04:12:55.982Z,12.00
2019-04-01T04:15:28.242Z,18.23
2019-04-01T04:18:00.773Z,17.77
2019-04-01T04:20:33.092Z,11.37
2019-04-01T04:23:06.559Z,10.50
2019-04-01T04:25:38.932Z,9.67
2019-04-01T04:28:11.475Z,10.80
2019-04-01T04:30:44.186Z,11.83
2019-04-01T04:33:17.730Z,15.10
2019-04-01T04:35:50.377Z,14.10
2019-04-01T04:38:22.903Z,13.77
2019-04-01T04:40:55.461Z,14.00
2019-04-01T04:43:27.906Z,20.33
2019-04-01T04:46:00.327Z,20.93
2019-04-01T04:48:34.087Z,23.20
2019-04-01T04:51:06.481Z,29.27
2019-04-01T04:53:38.674Z,29.50
2019-04-01T04:56:11.006Z,30.40
2019-04-01T04:58:43.368Z,30.60
2019-04-01T05:01:15.956Z,34.40
2019-04-01T05:03:48.537Z,33.50
2019-04-01T05:06:21.216Z,35.07
2019-04-01T05:08:53.466Z,31.83
2019-04-01T05:11:25.818Z,30.30
2019-04-01T05:13:58.986Z,26.93
2019-04-01T05:16:31.728Z,27.13
2019-04-01T05:19:04.461Z,28.70
2019-04-01T05:21:36.767Z,26.43
2019-04-01T05:24:09.717Z,28.20
2019-04-01T05:26:42.284Z,25.33
2019-04-01T05:29:15.572Z,19.53
2019-04-01T05:31:48.416Z,23.17
2019-04-01T05:34:21.451Z,28.93
2019-04-01T05:36:53.871Z,33.17
2019-04-01T05:39:26.686Z,22.53
2019-04-01T05:41:59.271Z,22.43
2019-04-01T05:44:31.708Z,19.43
2019-04-01T05:47:04.141Z,18.07
2019-04-01T05:49:36.381Z,21.97
2019-04-01T05:52:08.762Z,19.70
2019-04-01T05:54:41.171Z,20.23
2019-04-01T05:57:14.211Z,19.37
2019-04-01T05:59:46.651Z,20.40
2019-04-01T06:02:19.167Z,16.83
2019-04-01T06:04:51.596Z,16.53
2019-04-01T06:07:24.001Z,16.00
2019-04-01T06:09:56.617Z,15.77
2019-04-01T06:12:28.991Z,15.00
2019-04-01T06:15:01.472Z,15.60
2019-04-01T06:17:34.181Z,12.83
2019-04-01T06:20:07.610Z,11.93
2019-04-01T06:22:39.776Z,12.10
2019-04-01T06:25:12.297Z,10.90
2019-04-01T06:27:44.926Z,11.60
2019-04-01T06:30:17.446Z,10.80
2019-04-01T06:32:49.786Z,10.67
2019-04-01T06:35:22.355Z,10.00
2019-04-01T06:37:54.893Z,11.40
2019-04-01T06:40:27.210Z,10.30
2019-04-01T06:42:59.867Z,10.07
2019-04-01T06:45:33.818Z,10.17
2019-04-01T06:48:06.541Z,9.13
2019-04-01T06:50:38.901Z,11.73
2019-04-01T06:53:11.397Z,11.10
2019-04-01T06:55:43.713Z,10.10
2019-04-01T06:58:16.153Z,10.97
2019-04-01T07:00:48.540Z,12.00
2019-04-01T07:03:21.163Z,11.40
2019-04-01T07:05:54.469Z,11.60
2019-04-01T07:08:27.126Z,10.90
2019-04-01T07:10:59.286Z,8.83
2019-04-01T07:13:39.964Z,9.50
2019-04-01T07:16:15.865Z,7.83
2019-04-01T07:18:45.531Z,6.93
2019-04-01T07:21:17.608Z,6.73
2019-04-01T07:23:49.766Z,6.70
2019-04-01T07:26:21.872Z,6.80
2019-04-01T07:28:54.027Z,5.83
2019-04-01T07:31:26.468Z,6.20
2019-04-01T07:33:59.966Z,7.30
2019-04-01T07:36:32.246Z,4.90
2019-04-01T07:39:05.786Z,6.10
2019-04-01T07:41:38.006Z,6.43
2019-04-01T07:44:10.796Z,5.47
2019-04-01T07:46:42.976Z,6.57
2019-04-01T07:49:15.336Z,4.80
2019-04-01T07:51:47.697Z,5.27
2019-04-01T07:54:20.097Z,4.90
2019-04-01T07:56:52.267Z,5.73
2019-04-01T07:59:24.458Z,5.80
2019-04-01T08:01:56.617Z,5.23
2019-04-01T08:04:28.816Z,5.93
2019-04-01T08:07:01.131Z,6.73
2019-04-01T08:09:33.596Z,5.53
2019-04-01T08:12:06.577Z,4.33
2019-04-01T08:14:38.677Z,4.77
2019-04-01T08:17:10.816Z,4.90
2019-04-01T08:19:42.916Z,6.30
2019-04-01T08:22:15.139Z,5.60
2019-04-01T08:24:47.312Z,6.10
2019-04-01T08:27:19.883Z,5.30
2019-04-01T08:29:51.857Z,5.03
2019-04-01T08:32:23.901Z,4.33
2019-04-01T08:34:56.956Z,5.97
2019-04-01T08:37:29.286Z,3.20
2019-04-01T08:40:01.555Z,2.50
2019-04-01T08:42:34.696Z,2.87
2019-04-01T08:45:09.166Z,3.80
2019-04-01T08:47:41.315Z,1.93
2019-04-01T08:50:13.398Z,3.20
2019-04-01T08:52:45.516Z,4.33
2019-04-01T08:55:17.816Z,2.37
2019-04-01T08:57:50.186Z,1.90
2019-04-01T09:00:22.456Z,2.77
2019-04-01T09:02:54.536Z,1.97
2019-04-01T09:05:26.537Z,1.50
2019-04-01T09:07:58.956Z,1.83
2019-04-01T09:10:31.056Z,2.83
2019-04-01T09:13:03.356Z,1.07
2019-04-01T09:15:35.416Z,2.00
2019-04-01T09:18:07.556Z,1.60
2019-04-01T09:20:39.695Z,1.17
2019-04-01T09:23:11.936Z,1.90
2019-04-01T09:25:43.936Z,1.57
2019-04-01T09:28:16.202Z,1.33
2019-04-01T09:30:48.616Z,1.23
2019-04-01T09:33:21.039Z,1.70
2019-04-01T09:35:53.516Z,0.90
2019-04-01T09:38:25.575Z,0.80
2019-04-01T09:40:57.616Z,1.20
2019-04-01T09:43:30.127Z,1.60
2019-04-01T09:46:02.342Z,1.80
2019-04-01T09:48:34.492Z,1.30
2019-04-01T09:51:06.936Z,1.67
2019-04-01T09:53:39.176Z,1.40
2019-04-01T09:56:11.241Z,1.33
2019-04-01T09:58:43.356Z,1.40
2019-04-01T10:01:15.836Z,1.27
2019-04-01T10:03:47.976Z,1.80
2019-04-01T10:06:20.177Z,1.57
2019-04-01T10:08:52.741Z,1.87
2019-04-01T10:11:24.956Z,1.90
2019-04-01T10:13:57.176Z,2.33
2019-04-01T10:16:29.376Z,2.50
2019-04-01T10:19:01.897Z,2.33
2019-04-01T10:21:34.096Z,1.47
2019-04-01T10:24:06.376Z,1.20
2019-04-01T10:26:38.536Z,1.53
2019-04-01T10:29:11.036Z,2.00
2019-04-01T10:31:43.479Z,2.63
2019-04-01T10:34:15.756Z,1.63
2019-04-01T10:36:48.117Z,2.17
2019-04-01T10:39:20.255Z,1.17
2019-04-01T10:41:52.337Z,1.00
2019-04-01T10:44:24.796Z,1.63
2019-04-01T10:46:57.000Z,1.70
2019-04-01T10:49:32.023Z,1.50
2019-04-01T10:52:02.929Z,1.80
2019-04-01T10:54:35.232Z,2.13
2019-04-01T10:57:07.466Z,1.20
2019-04-01T10:59:39.940Z,1.43
2019-04-01T11:02:12.009Z,1.53
2019-04-01T11:04:44.335Z,1.20
2019-04-01T11:07:16.688Z,1.50
2019-04-01T11:09:48.836Z,1.67
2019-04-01T11:12:21.236Z,2.00
2019-04-01T11:14:53.399Z,1.50
2019-04-01T11:17:25.756Z,2.83
2019-04-01T11:19:57.977Z,1.60
2019-04-01T11:22:29.936Z,1.67
2019-04-01T11:25:02.141Z,1.63
2019-04-01T11:27:34.336Z,3.03
2019-04-01T11:30:08.516Z,1.87
2019-04-01T11:32:41.519Z,1.40
2019-04-01T11:35:13.648Z,1.50
2019-04-01T11:37:45.628Z,2.20
2019-04-01T11:40:17.726Z,1.20
2019-04-01T11:42:49.958Z,1.50
2019-04-01T11:45:22.668Z,1.87
2019-04-01T11:47:55.054Z,2.53
2019-04-01T11:50:27.367Z,1.67
2019-04-01T11:52:59.577Z,1.50
2019-04-01T11:55:32.190Z,2.03
2019-04-01T11:58:04.477Z,1.50
2019-04-01T12:00:36.776Z,1.87
2019-04-01T12:03:08.855Z,1.97
2019-04-01T12:05:41.156Z,2.03
2019-04-01T12:08:13.426Z,1.77
2019-04-01T12:10:45.776Z,1.63
2019-04-01T12:13:18.075Z,1.73
2019-04-01T12:15:50.315Z,2.00
2019-04-01T12:18:22.435Z,1.30
2019-04-01T12:20:54.435Z,1.80
2019-04-01T12:23:26.858Z,2.07
2019-04-01T12:26:13.890Z,1.23
2019-04-01T12:28:36.338Z,3.03
2019-04-01T12:31:06.898Z,2.40
2019-04-01T12:33:39.791Z,2.00
2019-04-01T12:36:12.136Z,1.63
2019-04-01T12:38:44.357Z,1.20
2019-04-01T12:41:17.026Z,1.53
2019-04-01T12:43:49.346Z,1.60
2019-04-01T12:46:21.695Z,2.00
2019-04-01T12:48:54.001Z,2.40
2019-04-01T12:51:26.195Z,2.50
2019-04-01T12:53:58.520Z,2.30
2019-04-01T12:56:30.636Z,2.00
2019-04-01T12:59:02.991Z,2.43
2019-04-01T13:01:35.495Z,1.47
2019-04-01T13:04:08.046Z,1.53
2019-04-01T13:06:40.555Z,3.50
2019-04-01T13:09:12.926Z,3.10
2019-04-01T13:11:45.621Z,2.43
2019-04-01T13:14:18.556Z,1.97
2019-04-01T13:16:50.776Z,3.90
2019-04-01T13:19:23.381Z,8.00
2019-04-01T13:21:55.773Z,2.37
2019-04-01T13:24:28.906Z,2.30
2019-04-01T13:27:01.051Z,2.57
2019-04-01T13:29:33.671Z,2.30
2019-04-01T13:32:06.910Z,2.30
2019-04-01T13:34:39.231Z,1.57
2019-04-01T13:37:12.473Z,1.70
2019-04-01T13:39:46.287Z,2.57
2019-04-01T13:42:18.633Z,1.67
2019-04-01T13:44:51.531Z,2.57
2019-04-01T13:47:24.111Z,2.20
2019-04-01T13:49:56.494Z,1.57
2019-04-01T13:52:28.650Z,1.27
2019-04-01T13:55:00.830Z,1.30
2019-04-01T13:57:33.090Z,4.67
2019-04-01T14:00:06.791Z,4.63
2019-04-01T14:02:39.091Z,2.80
2019-04-01T14:05:11.431Z,2.57
2019-04-01T14:07:43.771Z,16.07
2019-04-01T14:10:15.919Z,5.93
2019-04-01T14:12:49.350Z,3.20
2019-04-01T14:15:21.706Z,2.97
2019-04-01T14:17:54.099Z,4.40
2019-04-01T14:20:26.190Z,7.10
2019-04-01T14:22:58.611Z,2.30
2019-04-01T14:25:30.830Z,3.33
2019-04-01T14:28:03.190Z,2.10
2019-04-01T14:30:36.157Z,2.60
2019-04-01T14:33:08.770Z,2.43
2019-04-01T14:35:40.731Z,3.17
2019-04-01T14:38:13.031Z,6.80
2019-04-01T14:40:45.231Z,4.30
2019-04-01T14:43:17.630Z,6.60
2019-04-01T14:45:49.891Z,4.50
2019-04-01T14:48:22.344Z,3.40
2019-04-01T14:50:54.901Z,4.50
2019-04-01T14:53:27.305Z,18.07
2019-04-01T14:55:59.881Z,8.80
2019-04-01T14:58:32.450Z,5.97
2019-04-01T15:01:04.983Z,8.30
2019-04-01T15:03:38.526Z,3.17
2019-04-01T15:06:11.721Z,3.67
2019-04-01T15:08:44.103Z,4.33
2019-04-01T15:11:16.730Z,4.43
2019-04-01T15:13:49.451Z,7.23
2019-04-01T15:16:21.856Z,4.57
2019-04-01T15:18:54.106Z,5.73
2019-04-01T15:21:26.466Z,12.40
2019-04-01T15:23:58.876Z,9.00
2019-04-01T15:26:31.348Z,8.70
2019-04-01T15:29:03.717Z,3.73
2019-04-01T15:31:36.321Z,4.80
2019-04-01T15:34:09.459Z,4.77
2019-04-01T15:36:42.169Z,8.03
2019-04-01T15:39:15.471Z,4.50
2019-04-01T15:41:47.788Z,4.73
2019-04-01T15:44:20.459Z,43.50
2019-04-01T15:46:52.735Z,18.10
2019-04-01T15:49:24.980Z,11.07
2019-04-01T15:51:57.330Z,8.03
2019-04-01T15:54:29.736Z,7.97
2019-04-01T15:57:02.286Z,8.27
2019-04-01T15:59:34.820Z,16.23
2019-04-01T16:02:07.406Z,7.53
2019-04-01T16:04:40.166Z,3.33
2019-04-01T16:07:12.685Z,7.23
2019-04-01T16:09:45.170Z,11.57
2019-04-01T16:12:17.485Z,12.10
2019-04-01T16:14:50.316Z,20.63
2019-04-01T16:17:22.931Z,11.17
2019-04-01T16:19:55.651Z,18.67
2019-04-01T16:22:27.946Z,10.27
2019-04-01T16:25:00.766Z,5.97
2019-04-01T16:27:33.290Z,9.10
2019-04-01T16:30:07.850Z,9.70
2019-04-01T16:32:40.358Z,8.70
2019-04-01T16:35:12.861Z,7.97
2019-04-01T16:37:45.651Z,7.87
2019-04-01T16:40:18.408Z,7.13
2019-04-01T16:42:51.372Z,8.33
2019-04-01T16:45:23.893Z,11.37
2019-04-01T16:47:56.286Z,9.87
2019-04-01T16:50:28.782Z,8.10
2019-04-01T16:53:01.356Z,11.83
2019-04-01T16:55:33.790Z,12.57
2019-04-01T16:58:06.701Z,25.33
2019-04-01T17:00:39.776Z,22.50
2019-04-01T17:03:13.722Z,34.17
2019-04-01T17:05:47.950Z,28.03
2019-04-01T17:08:20.666Z,66.13
2019-04-01T17:10:53.250Z,67.20
2019-04-01T17:13:27.150Z,23.90
2019-04-01T17:16:01.693Z,34.60
2019-04-01T17:18:35.540Z,20.53
2019-04-01T17:21:08.122Z,26.00
2019-04-01T17:23:41.997Z,19.30
2019-04-01T17:26:15.071Z,23.37
2019-04-01T17:28:47.696Z,26.00
2019-04-01T17:31:20.205Z,25.97
2019-04-01T17:33:53.170Z,26.37
2019-04-01T17:36:26.002Z,22.80
2019-04-01T17:38:58.762Z,22.30
2019-04-01T17:41:31.381Z,44.57
2019-04-01T17:44:03.886Z,47.53
2019-04-01T17:46:37.364Z,52.53
2019-04-01T17:49:10.312Z,55.57
2019-04-01T17:51:44.180Z,36.40
2019-04-01T17:54:17.184Z,64.40
2019-04-01T17:56:51.242Z,95.33
2019-04-01T17:59:23.836Z,109.03
2019-04-01T18:01:57.195Z,158.50
2019-04-01T18:04:30.962Z,95.77
2019-04-01T18:07:03.806Z,82.10
2019-04-01T18:09:36.314Z,42.37
2019-04-01T18:12:08.839Z,36.83
2019-04-01T18:14:41.206Z,70.30
2019-04-01T18:17:13.806Z,62.50
2019-04-01T18:19:47.267Z,63.37
2019-04-01T18:22:19.922Z,65.87
2019-04-01T18:24:52.348Z,75.17
2019-04-01T18:27:25.068Z,42.80
2019-04-01T18:29:57.506Z,60.73
2019-04-01T18:32:31.131Z,36.90
2019-04-01T18:35:04.369Z,30.67
2019-04-01T18:37:37.048Z,32.17
2019-04-01T18:40:09.648Z,29.47
2019-04-01T18:42:42.266Z,32.53
2019-04-01T18:45:14.681Z,32.27
2019-04-01T18:47:47.451Z,34.87
2019-04-01T18:50:20.006Z,30.00
2019-04-01T18:52:52.777Z,29.10
2019-04-01T18:55:26.331Z,28.50
2019-04-01T18:57:59.206Z,27.80
2019-04-01T19:00:31.656Z,23.00
2019-04-01T19:03:04.260Z,35.30
2019-04-01T19:05:36.611Z,26.73
2019-04-01T19:08:09.222Z,35.07
2019-04-01T19:10:42.037Z,19.33
2019-04-01T19:13:14.911Z,17.23
2019-04-01T19:15:48.160Z,28.43
2019-04-01T19:18:21.435Z,22.73
2019-04-01T19:20:56.849Z,30.70
2019-04-01T19:23:28.090Z,42.53
2019-04-01T19:26:00.492Z,32.43
2019-04-01T19:28:33.103Z,34.30
2019-04-01T19:31:05.536Z,23.83
2019-04-01T19:33:38.317Z,23.37
2019-04-01T19:36:11.246Z,22.63
2019-04-01T19:38:43.921Z,29.50
2019-04-01T19:41:16.566Z,42.83
2019-04-01T19:43:51.164Z,30.93
2019-04-01T19:46:23.861Z,29.00
2019-04-01T19:48:56.352Z,20.87
2019-04-01T19:51:29.011Z,20.97
2019-04-01T19:54:01.421Z,21.10
2019-04-01T19:56:34.305Z,26.80
2019-04-01T19:59:06.892Z,26.90
2019-04-01T20:01:39.753Z,25.80
2019-04-01T20:04:12.256Z,28.13
2019-04-01T20:06:44.821Z,32.77
2019-04-01T20:09:18.122Z,27.97
2019-04-01T20:11:50.964Z,39.40
2019-04-01T20:14:23.491Z,33.60
2019-04-01T20:16:55.940Z,26.90
2019-04-01T20:19:29.781Z,49.87
2019-04-01T20:22:02.181Z,42.00
2019-04-01T20:24:34.861Z,45.07
2019-04-01T20:27:07.186Z,39.90
2019-04-01T20:29:40.815Z,30.50
2019-04-01T20:32:17.649Z,31.43
2019-04-01T20:34:56.757Z,35.07
2019-04-01T20:37:21.708Z,35.70
2019-04-01T20:39:55.258Z,24.43
2019-04-01T20:42:28.396Z,22.40
2019-04-01T20:45:01.176Z,30.03
2019-04-01T20:47:33.500Z,31.30
2019-04-01T20:50:11.186Z,28.67
2019-04-01T20:52:43.823Z,30.03
2019-04-01T20:55:16.586Z,37.13
2019-04-01T20:57:49.133Z,32.33
2019-04-01T21:00:21.843Z,28.80
2019-04-01T21:02:54.481Z,20.67
2019-04-01T21:05:27.117Z,31.13
2019-04-01T21:07:59.510Z,19.27
2019-04-01T21:10:31.996Z,22.00
2019-04-01T21:13:06.036Z,26.50
2019-04-01T21:15:38.354Z,24.23
2019-04-01T21:18:10.910Z,24.73
2019-04-01T21:20:43.545Z,19.30
2019-04-01T21:23:16.101Z,16.13
2019-04-01T21:25:48.831Z,32.60
2019-04-01T21:28:22.925Z,27.10
2019-04-01T21:30:55.786Z,33.80
2019-04-01T21:33:28.341Z,43.53
2019-04-01T21:36:01.016Z,33.13
2019-04-01T21:38:33.509Z,25.50
2019-04-01T21:41:05.925Z,25.03
2019-04-01T21:43:38.561Z,32.63
2019-04-01T21:46:10.986Z,28.50
2019-04-01T21:48:43.701Z,24.20
2019-04-01T21:51:16.632Z,22.30
2019-04-01T21:53:49.090Z,22.27
2019-04-01T21:56:22.189Z,28.60
2019-04-01T21:58:55.681Z,16.23
2019-04-01T22:01:28.282Z,14.83
2019-04-01T22:04:00.845Z,15.13
2019-04-01T22:06:33.327Z,17.73
2019-04-01T22:09:08.836Z,15.80
2019-04-01T22:11:41.271Z,24.00
2019-04-01T22:14:13.496Z,20.00
2019-04-01T22:16:48.018Z,33.07
2019-04-01T22:19:20.656Z,39.90
2019-04-01T22:21:53.380Z,33.40
2019-04-01T22:24:25.855Z,32.97
2019-04-01T22:26:58.415Z,23.50
2019-04-01T22:29:30.858Z,15.33
2019-04-01T22:32:03.355Z,16.50
2019-04-01T22:34:38.068Z,25.70
2019-04-01T22:37:10.866Z,18.07
2019-04-01T22:39:45.443Z,15.77
2019-04-01T22:42:17.626Z,14.90
2019-04-01T22:44:50.132Z,15.33
2019-04-01T22:47:24.347Z,16.23
2019-04-01T22:49:58.196Z,13.97
2019-04-01T22:52:30.552Z,13.37
2019-04-01T22:55:03.127Z,18.33
2019-04-01T22:57:35.716Z,12.63
2019-04-01T23:00:08.095Z,13.37
2019-04-01T23:02:42.382Z,15.30
2019-04-01T23:05:15.401Z,12.77
2019-04-01T23:07:47.756Z,12.77
2019-04-01T23:10:20.390Z,13.20
2019-04-01T23:12:52.589Z,11.00
2019-04-01T23:15:25.242Z,12.73
2019-04-01T23:17:57.616Z,11.03
2019-04-01T23:20:29.871Z,10.60
2019-04-01T23:23:01.971Z,10.73
2019-04-01T23:25:34.511Z,11.57
2019-04-01T23:28:06.731Z,11.00
2019-04-01T23:30:39.286Z,12.10
2019-04-01T23:33:11.513Z,11.37
2019-04-01T23:35:43.996Z,10.73
2019-04-01T23:38:17.481Z,10.83
2019-04-01T23:40:49.846Z,9.90
2019-04-01T23:43:22.465Z,10.27
2019-04-01T23:45:55.152Z,11.70
2019-04-01T23:48:27.341Z,10.73
2019-04-01T23:50:59.805Z,10.00
2019-04-01T23:53:32.560Z,9.07
2019-04-01T23:56:05.072Z,8.63
2019-04-01T23:58:37.446Z,8.47
